Lester Prairie, MN

10:38 AM CDT on May 25, 2015 (GMT -0500)
Maple Lake Municipal | | Change Station
CLOSE
Current Station
Airport
Location: Maple Lake,
Elevation: 1027 ft
Nearby Weather Stations

Elev 1027 ft 45.24 °N, 93.99 °W | Updated 2 minutes ago

Overcast
Overcast
61 °F
Feels Like 61 °F
N
6
Wind Variable Wind from SSW

Today
High -- | Low -- °F
--% Chance of Precip.
Yesterday
High -- | Low -- °F
Precip. -- in
5:38 AM 8:48 PM
Waxing Crescent, 49% visible
Pressure 29.68 in
Visibility 10.0 miles
Clouds Scattered Clouds 800 ft
Overcast 1500 ft
Dew Point 59 °F
Humidity 95%
Rainfall 0.00 in
Snow Depth Not available.
UV 2 out of 12
Pollen .90 out of 12
Air Quality Not available.
Flu Activity Sporadic
METAR KMGG 251536Z AUTO 21005KT 10SM -RA SCT008 OVC015 16/15 A2968 RMK AO2 T01600152

More Conditions Fewer Conditions

Pressure 29.68 in
Visibility 10.0 miles
Clouds Scattered Clouds 800 ft
Overcast 1500 ft
Dew Point 59 °F
Humidity 95%
Rainfall 0.00 in
Snow Depth Not available.
UV 2 out of 12
Pollen .90 out of 12
Air Quality Not available.
Flu Activity Sporadic
METAR KMGG 251536Z AUTO 21005KT 10SM -RA SCT008 OVC015 16/15 A2968 RMK AO2 T01600152

More Conditions Fewer Conditions

10-Day Weather Forecast

Almanac

Astronomy

May. 25, 2015 Rise Set
Actual Time
Civil Twilight
Nautical Twilight
Astronomical Twilight
Moon
Length of Visible Light
Length of Day
Tomorrow will be .
, % of the Moon is Illuminated

Today's Extremes

State Highs State Lows

Community

WunderPhotos

Upload Photos

1,824,030 photos uploaded!

WunderBlogs® & News

Nearby

Air Quality

  Air Quality AQ Index Pollutant
Not available.

Snow Depth

Station Depth Elevation

Earthquake Activity

City Distance Mag. Time & Date
Minimum magnitude displayed is 2.5.

Coastal Water Temperatures

Place Temperature

Stations

Nearby Weather Stations

Station Location Temp. Windchill Dew Point Humidity Wind Precip. Elev Updated Type